createdAt,value
2023-01-10T06:00:40.308Z,100026.09
2023-01-10T06:03:07.079Z,100037.50
2023-01-10T06:05:34.046Z,100041.97
2023-01-10T06:08:00.642Z,100044.56
2023-01-10T06:10:27.841Z,100035.00
2023-01-10T06:12:54.848Z,100039.34
2023-01-10T06:15:21.763Z,100054.31
2023-01-10T06:17:48.940Z,100049.97
2023-01-10T06:20:15.779Z,100051.63
2023-01-10T06:22:43.759Z,100056.03
2023-01-10T06:25:11.809Z,100061.44
2023-01-10T06:27:43.698Z,100070.22
2023-01-10T06:30:13.353Z,100077.28
2023-01-10T06:32:41.337Z,100080.75
2023-01-10T06:35:08.805Z,100085.91
2023-01-10T06:37:36.147Z,100094.78
2023-01-10T06:40:03.512Z,100093.00
2023-01-10T06:42:30.690Z,100097.41
2023-01-10T06:44:57.283Z,100101.81
2023-01-10T06:47:24.189Z,100117.59
2023-01-10T06:49:50.810Z,100115.88
2023-01-10T06:52:18.046Z,100111.44
2023-01-10T06:54:44.690Z,100114.88
2023-01-10T06:57:11.976Z,100128.03
2023-01-10T06:59:38.547Z,100127.22
2023-01-10T07:02:05.866Z,100119.22
2023-01-10T07:04:32.514Z,100118.28
2023-01-10T07:07:01.025Z,100125.31
2023-01-10T07:09:28.541Z,100125.25
2023-01-10T07:11:55.914Z,100127.91
2023-01-10T07:14:22.580Z,100133.22
2023-01-10T07:16:49.895Z,100141.97
2023-01-10T07:19:18.120Z,100142.91
2023-01-10T07:21:45.286Z,100141.16
2023-01-10T07:24:11.919Z,100150.78
2023-01-10T07:26:39.121Z,100141.94
2023-01-10T07:29:05.845Z,100150.78
2023-01-10T07:31:33.223Z,100154.28
2023-01-10T07:33:59.865Z,100158.75
2023-01-10T07:36:27.069Z,100176.38
2023-01-10T07:38:53.693Z,100180.72
2023-01-10T07:41:20.886Z,100175.41
2023-01-10T07:43:48.771Z,100178.91
2023-01-10T07:46:16.252Z,100179.66
2023-01-10T07:48:43.698Z,100166.50
2023-01-10T07:51:10.930Z,100181.34
2023-01-10T07:53:38.420Z,100202.44
2023-01-10T07:56:06.038Z,100195.41
2023-01-10T07:58:33.179Z,100187.47
2023-01-10T08:01:02.047Z,100194.50
2023-01-10T08:03:33.659Z,100185.66
2023-01-10T08:06:02.257Z,100189.22
2023-01-10T08:08:29.916Z,100190.00
2023-01-10T08:10:57.303Z,100199.78
2023-01-10T08:13:24.441Z,100201.44
2023-01-10T08:15:52.314Z,100205.03
2023-01-10T08:18:21.072Z,100216.53
2023-01-10T08:20:52.730Z,100213.94
2023-01-10T08:23:21.373Z,100223.59
2023-01-10T08:25:48.476Z,100215.63
2023-01-10T08:28:15.209Z,100217.34
2023-01-10T08:30:42.397Z,100218.13
2023-01-10T08:33:10.984Z,100222.50
2023-01-10T08:35:42.531Z,100234.00
2023-01-10T08:38:10.950Z,100233.97
2023-01-10T08:40:37.604Z,100239.28
2023-01-10T08:43:07.778Z,100237.53
2023-01-10T08:45:35.493Z,100241.09
2023-01-10T08:48:02.508Z,100245.47
2023-01-10T08:50:29.975Z,100248.09
2023-01-10T08:53:00.584Z,100246.28
2023-01-10T08:55:28.689Z,100246.31
2023-01-10T08:57:55.562Z,100241.09
2023-01-10T09:00:22.655Z,100247.19
2023-01-10T09:02:49.588Z,100249.75
2023-01-10T09:05:27.193Z,100255.91
2023-01-10T09:08:02.997Z,100256.75
2023-01-10T09:10:30.113Z,100259.41
2023-01-10T09:13:02.069Z,100253.28
2023-01-10T09:15:34.094Z,100254.06
2023-01-10T09:18:05.199Z,100271.63
2023-01-10T09:20:34.243Z,100263.66
2023-01-10T09:23:06.901Z,100261.88
2023-01-10T09:25:34.053Z,100255.72
2023-01-10T09:28:03.038Z,100257.56
2023-01-10T09:30:30.292Z,100246.81
2023-01-10T09:32:58.583Z,100259.97
2023-01-10T09:35:26.688Z,100257.38
2023-01-10T09:37:58.652Z,100252.94
2023-01-10T09:40:44.155Z,100259.94
2023-01-10T09:43:26.679Z,100265.19
2023-01-10T09:46:02.606Z,100275.69
2023-01-10T09:48:52.257Z,100286.25
2023-01-10T09:51:50.978Z,100284.53
2023-01-10T09:54:28.459Z,100294.16
2023-01-10T09:56:56.291Z,100302.03
2023-01-10T09:59:26.559Z,100290.63
2023-01-10T10:02:00.275Z,100294.06
2023-01-10T10:04:30.488Z,100294.91
2023-01-10T10:06:57.092Z,100299.22
2023-01-10T10:09:28.049Z,100305.41
2023-01-10T10:12:14.838Z,100302.78
2023-01-10T10:15:00.688Z,100305.34
2023-01-10T10:17:37.424Z,100300.00
2023-01-10T10:20:25.186Z,100301.66
2023-01-10T10:22:52.324Z,100303.38
2023-01-10T10:25:52.314Z,100304.31
2023-01-10T10:29:03.843Z,100299.03
2023-01-10T10:31:56.445Z,100296.25
2023-01-10T10:34:28.547Z,100294.47
2023-01-10T10:37:01.095Z,100287.41
2023-01-10T10:39:39.092Z,100291.88
2023-01-10T10:42:13.536Z,100284.78
2023-01-10T10:44:47.489Z,100294.50
2023-01-10T10:47:19.444Z,100298.72
2023-01-10T10:50:18.964Z,100290.00
2023-01-10T10:52:47.064Z,100294.34
2023-01-10T10:55:19.133Z,100297.91
2023-01-10T10:57:59.598Z,100293.44
2023-01-10T11:00:28.665Z,100297.13
2023-01-10T11:03:16.852Z,100296.25
2023-01-10T11:05:46.819Z,100297.13
2023-01-10T11:08:17.384Z,100293.63
2023-01-10T11:10:56.499Z,100290.00
2023-01-10T11:13:33.856Z,100287.25
2023-01-10T11:16:05.832Z,100282.84
2023-01-10T11:18:34.045Z,100281.06
2023-01-10T11:21:05.385Z,100277.56
2023-01-10T11:23:56.873Z,100267.78
2023-01-10T11:26:37.440Z,100273.84
2023-01-10T11:29:36.857Z,100274.66
2023-01-10T11:32:14.946Z,100279.84
2023-01-10T11:34:49.113Z,100273.63
2023-01-10T11:37:26.817Z,100274.47
2023-01-10T11:40:20.402Z,100264.78
2023-01-10T11:42:47.908Z,100271.94
2023-01-10T11:45:17.201Z,100270.19
2023-01-10T11:47:49.185Z,100270.19
2023-01-10T11:50:32.289Z,100261.28
2023-01-10T11:52:59.741Z,100262.81
2023-01-10T11:55:29.804Z,100262.78
2023-01-10T11:58:13.907Z,100252.16
2023-01-10T12:00:48.475Z,100254.75
2023-01-10T12:03:21.391Z,100253.03
2023-01-10T12:06:15.764Z,100248.59
2023-01-10T12:08:43.080Z,100252.81
2023-01-10T12:11:27.627Z,100245.66
2023-01-10T12:13:58.184Z,100238.56
2023-01-10T12:16:32.122Z,100250.75
2023-01-10T12:19:02.621Z,100242.72
2023-01-10T12:21:43.715Z,100252.56
2023-01-10T12:24:25.208Z,100255.31
2023-01-10T12:26:53.940Z,100250.00
2023-01-10T12:29:33.193Z,100251.84
2023-01-10T12:32:01.119Z,100262.38
2023-01-10T12:34:40.720Z,100252.69
2023-01-10T12:37:27.857Z,100264.22
2023-01-10T12:40:01.131Z,100250.09
2023-01-10T12:43:03.358Z,100260.53
2023-01-10T12:45:39.228Z,100265.88
2023-01-10T12:48:44.520Z,100254.44
2023-01-10T12:51:18.597Z,100255.31
2023-01-10T12:53:52.400Z,100250.09
2023-01-10T12:56:20.216Z,100253.50
2023-01-10T12:58:51.496Z,100258.72
2023-01-10T13:01:40.354Z,100249.81
2023-01-10T13:04:12.920Z,100248.03
2023-01-10T13:06:42.293Z,100246.25
2023-01-10T13:09:21.398Z,100239.34
2023-01-10T13:12:02.462Z,100234.94
2023-01-10T13:14:37.088Z,100226.97
2023-01-10T13:17:27.861Z,100216.31
2023-01-10T13:20:16.796Z,100223.47
2023-01-10T13:22:48.425Z,100226.88
2023-01-10T13:25:27.772Z,100218.94
2023-01-10T13:28:05.906Z,100217.19
2023-01-10T13:30:37.422Z,100224.19
2023-01-10T13:33:20.017Z,100221.56
2023-01-10T13:35:49.057Z,100207.41
2023-01-10T13:38:26.680Z,100202.25
2023-01-10T13:41:29.923Z,100197.75
2023-01-10T13:44:14.909Z,100199.44
2023-01-10T13:46:46.488Z,100198.53
2023-01-10T13:49:13.627Z,100195.00
2023-01-10T13:52:18.847Z,100188.03
2023-01-10T13:55:04.074Z,100195.25
2023-01-10T13:57:50.432Z,100196.38
2023-01-10T14:00:45.055Z,100198.16
2023-01-10T14:03:36.619Z,100193.66
2023-01-10T14:06:05.713Z,100198.88
2023-01-10T14:08:33.524Z,100200.66
2023-01-10T14:11:12.756Z,100191.88
2023-01-10T14:13:52.718Z,100188.53
2023-01-10T14:16:30.842Z,100185.25
2023-01-10T14:18:58.366Z,100185.19
2023-01-10T14:21:27.378Z,100184.16
2023-01-10T14:23:56.958Z,100186.13
2023-01-10T14:26:37.952Z,100178.19
2023-01-10T14:29:14.043Z,100174.78
2023-01-10T14:31:47.129Z,100170.56
2023-01-10T14:34:28.947Z,100167.13
2023-01-10T14:37:01.788Z,100167.13
2023-01-10T14:39:30.484Z,100159.19
2023-01-10T14:42:05.204Z,100158.25
2023-01-10T14:44:35.108Z,100152.06
2023-01-10T14:47:04.560Z,100159.19
2023-01-10T14:49:36.201Z,100162.63
2023-01-10T14:52:24.116Z,100155.63
2023-01-10T14:55:02.793Z,100150.50
2023-01-10T14:57:29.748Z,100152.16
2023-01-10T15:00:12.480Z,100147.78
2023-01-10T15:02:48.295Z,100145.06
2023-01-10T15:05:19.565Z,100132.88
2023-01-10T15:07:47.363Z,100138.28
2023-01-10T15:10:24.844Z,100131.22
2023-01-10T15:12:54.980Z,100133.03
2023-01-10T15:15:34.284Z,100131.47
2023-01-10T15:18:06.816Z,100119.16
2023-01-10T15:20:34.154Z,100129.75
2023-01-10T15:23:02.241Z,100127.09
2023-01-10T15:25:38.637Z,100118.22
2023-01-10T15:28:15.109Z,100112.16
2023-01-10T15:30:42.561Z,100106.94
2023-01-10T15:33:16.464Z,100107.88
2023-01-10T15:35:43.689Z,100114.09
2023-01-10T15:38:16.772Z,100105.31
2023-01-10T15:40:44.164Z,100097.44
2023-01-10T15:43:17.110Z,100100.03
2023-01-10T15:45:46.065Z,100097.44
2023-01-10T15:48:36.023Z,100093.06
2023-01-10T15:51:06.526Z,100087.00
2023-01-10T15:53:53.931Z,100085.16
2023-01-10T15:56:25.531Z,100085.09
2023-01-10T15:58:52.895Z,100072.03
2023-01-10T16:01:19.942Z,100070.25
2023-01-10T16:03:53.732Z,100071.16
2023-01-10T16:06:27.575Z,100065.88
2023-01-10T16:08:57.181Z,100068.53
2023-01-10T16:11:56.608Z,100061.69
2023-01-10T16:14:23.752Z,100059.88
2023-01-10T16:16:50.501Z,100059.06
2023-01-10T16:19:17.631Z,100056.31
2023-01-10T16:21:48.417Z,100052.78
2023-01-10T16:24:27.256Z,100054.53
2023-01-10T16:26:55.620Z,100045.84
2023-01-10T16:29:23.242Z,100037.94
2023-01-10T16:31:52.222Z,100035.25
2023-01-10T16:34:19.752Z,100026.41
2023-01-10T16:36:46.441Z,100029.91
2023-01-10T16:39:22.049Z,100017.66
2023-01-10T16:42:07.676Z,100014.19
2023-01-10T16:44:35.232Z,100009.69
2023-01-10T16:47:06.356Z,100012.34
2023-01-10T16:49:34.227Z,100000.84
2023-01-10T16:52:00.887Z,99999.13
2023-01-10T16:54:28.609Z,100001.78
2023-01-10T16:56:55.819Z,99993.88
2023-01-10T16:59:23.042Z,99991.38
2023-01-10T17:01:58.231Z,100002.69
2023-01-10T17:04:30.182Z,99996.53
2023-01-10T17:06:57.149Z,99987.63
2023-01-10T17:09:27.188Z,99988.56
2023-01-10T17:11:56.627Z,99983.19
2023-01-10T17:14:23.778Z,99984.00
2023-01-10T17:16:50.444Z,99980.56
2023-01-10T17:19:17.760Z,99975.44
2023-01-10T17:21:44.347Z,99969.22
2023-01-10T17:24:12.033Z,99967.47
2023-01-10T17:26:38.664Z,99975.34
2023-01-10T17:29:05.835Z,99976.22
2023-01-10T17:31:32.444Z,99969.13
2023-01-10T17:33:59.710Z,99972.72
2023-01-10T17:36:30.237Z,99978.88
2023-01-10T17:38:57.519Z,99972.69
2023-01-10T17:41:24.366Z,99968.34
2023-01-10T17:43:51.637Z,99961.22
2023-01-10T17:46:18.256Z,99962.00
2023-01-10T17:48:45.453Z,99954.16
2023-01-10T17:51:13.184Z,99961.22
2023-01-10T17:53:41.164Z,99945.38
2023-01-10T17:56:08.299Z,99949.72
2023-01-10T17:58:35.917Z,99945.22
2023-01-10T18:01:02.817Z,99928.59
2023-01-10T18:03:30.056Z,99933.00
2023-01-10T18:05:58.749Z,99920.56
2023-01-10T18:08:26.620Z,99910.84
2023-01-10T18:11:00.021Z,99903.75
2023-01-10T18:13:33.620Z,99901.16
2023-01-10T18:16:01.223Z,99895.84
2023-01-10T18:18:28.708Z,99879.94
2023-01-10T18:20:58.106Z,99885.28
2023-01-10T18:23:27.048Z,99872.09
2023-01-10T18:26:12.991Z,99869.34
2023-01-10T18:28:43.013Z,99863.22
2023-01-10T18:31:17.996Z,99848.22
2023-01-10T18:33:46.950Z,99863.22
2023-01-10T18:36:19.486Z,99849.06
2023-01-10T18:38:48.083Z,99848.09
2023-01-10T18:41:15.726Z,99842.72
2023-01-10T18:43:42.589Z,99849.72
2023-01-10T18:46:18.785Z,99849.66
2023-01-10T18:48:46.907Z,99842.63
2023-01-10T18:51:14.662Z,99835.56
2023-01-10T18:53:42.897Z,99836.34
2023-01-10T18:56:10.734Z,99839.88
2023-01-10T18:58:41.066Z,99832.25
2023-01-10T19:01:13.842Z,99839.31
2023-01-10T19:03:41.930Z,99836.72
2023-01-10T19:06:14.361Z,99838.50
2023-01-10T19:08:42.864Z,99832.44
2023-01-10T19:11:14.483Z,99851.88
2023-01-10T19:13:43.554Z,99825.44
2023-01-10T19:16:25.188Z,99825.66
2023-01-10T19:19:01.280Z,99823.13
2023-01-10T19:21:30.350Z,99817.03
2023-01-10T19:24:02.132Z,99809.28
2023-01-10T19:26:29.085Z,99812.72
2023-01-10T19:28:55.707Z,99801.38
2023-01-10T19:31:25.903Z,99799.00
2023-01-10T19:33:53.620Z,99798.03
2023-01-10T19:36:22.411Z,99792.88
2023-01-10T19:38:57.110Z,99795.44
2023-01-10T19:41:25.235Z,99790.22
2023-01-10T19:43:57.406Z,99787.69
2023-01-10T19:46:24.489Z,99778.91
2023-01-10T19:48:52.091Z,99783.31
2023-01-10T19:51:18.715Z,99783.25
2023-01-10T19:53:46.903Z,99785.78
2023-01-10T19:56:22.922Z,99782.56
2023-01-10T19:58:51.550Z,99779.06
2023-01-10T20:01:21.284Z,99772.94
2023-01-10T20:03:49.161Z,99767.53
2023-01-10T20:06:20.797Z,99759.47
2023-01-10T20:08:49.018Z,99754.19
2023-01-10T20:11:17.233Z,99750.78
2023-01-10T20:13:45.610Z,99751.66
2023-01-10T20:16:13.961Z,99750.78
2023-01-10T20:18:43.006Z,99747.25
2023-01-10T20:21:11.531Z,99736.22
2023-01-10T20:23:40.110Z,99737.03
2023-01-10T20:26:14.100Z,99730.97
2023-01-10T20:28:42.958Z,99733.00
2023-01-10T20:31:13.002Z,99721.50
2023-01-10T20:33:40.390Z,99717.19
2023-01-10T20:36:10.353Z,99710.13
2023-01-10T20:38:38.496Z,99703.13
2023-01-10T20:41:17.974Z,99703.94
2023-01-10T20:43:45.671Z,99700.34
2023-01-10T20:46:15.788Z,99695.13
2023-01-10T20:48:43.668Z,99689.97
2023-01-10T20:51:16.877Z,99684.69
2023-01-10T20:53:44.384Z,99691.66
2023-01-10T20:56:14.792Z,99683.66
2023-01-10T20:58:42.645Z,99685.63
2023-01-10T21:01:12.371Z,99681.94
2023-01-10T21:03:43.074Z,99686.22
2023-01-10T21:06:10.212Z,99679.28
2023-01-10T21:08:37.536Z,99668.56
2023-01-10T21:11:06.073Z,99675.56
2023-01-10T21:13:35.157Z,99671.13
2023-01-10T21:16:02.835Z,99657.94
2023-01-10T21:18:37.870Z,99658.84
2023-01-10T21:21:04.581Z,99654.47
2023-01-10T21:23:31.531Z,99656.06
2023-01-10T21:26:04.682Z,99661.34
2023-01-10T21:28:42.578Z,99649.72
